Time,TemperatureF,DewpointF,PressureIn,WindDirection,WindDirectionDegrees,WindSpeedMPH,WindSpeedGustMPH,Humidity,HourlyPrecipIn,Conditions,Clouds,dailyrainin,SoftwareType,DateUTC
2014-04-01 00:01:00,33.1,32.0,30.09,ENE,76,2.0,3.0,96,0.00,,,0.00,meteohub,2014-04-01 04:01:00,
2014-04-01 00:02:00,33.1,32.0,30.09,ENE,76,3.0,3.0,96,0.00,,,0.00,meteohub,2014-04-01 04:02:00,
2014-04-01 00:03:00,33.1,32.0,30.09,ENE,76,2.0,3.0,96,0.00,,,0.00,meteohub,2014-04-01 04:03:00,
2014-04-01 00:04:00,33.1,32.0,30.09,ENE,76,3.0,3.0,96,0.00,,,0.00,meteohub,2014-04-01 04:04:00,
2014-04-01 00:09:00,33.1,32.0,30.08,ENE,77,2.0,4.0,96,0.00,,,0.00,meteohub,2014-04-01 04:09:00,
2014-04-01 00:14:00,33.1,32.0,30.08,ENE,77,4.0,4.0,96,0.00,,,0.00,meteohub,2014-04-01 04:14:00,
2014-04-01 00:19:00,33.1,32.0,30.08,ENE,76,3.0,4.0,96,0.00,,,0.00,meteohub,2014-04-01 04:19:00,
2014-04-01 00:23:00,33.3,32.5,30.08,ENE,76,2.0,5.0,97,0.00,,,0.00,meteohub,2014-04-01 04:23:00,
2014-04-01 00:28:00,33.3,32.5,30.08,ENE,76,3.0,5.0,97,0.00,,,0.00,meteohub,2014-04-01 04:28:00,
2014-04-01 00:34:00,33.3,32.5,30.08,ENE,76,3.0,5.0,97,0.00,,,0.00,meteohub,2014-04-01 04:34:00,
2014-04-01 00:39:00,33.3,32.5,30.07,ENE,77,3.0,4.0,97,0.00,,,0.00,meteohub,2014-04-01 04:39:00,
2014-04-01 00:45:00,33.1,32.4,30.07,ENE,76,4.0,4.0,97,0.00,,,0.00,meteohub,2014-04-01 04:45:00,
2014-04-01 00:50:00,33.1,32.4,30.07,ENE,78,3.0,5.0,97,0.00,,,0.00,meteohub,2014-04-01 04:50:00,
2014-04-01 00:56:00,33.3,32.5,30.07,ENE,78,1.0,5.0,97,0.00,,,0.00,meteohub,2014-04-01 04:56:00,
2014-04-01 01:01:00,33.3,32.2,30.07,ENE,78,1.0,4.0,96,0.00,,,0.00,meteohub,2014-04-01 05:01:00,
2014-04-01 01:06:00,33.4,32.4,30.06,ENE,78,1.0,3.0,96,0.00,,,0.00,meteohub,2014-04-01 05:06:00,
2014-04-01 01:12:00,33.4,32.4,30.06,ENE,78,2.0,3.0,96,0.00,,,0.00,meteohub,2014-04-01 05:12:00,
2014-04-01 01:17:00,33.6,32.5,30.06,ENE,78,1.0,3.0,96,0.00,,,0.00,meteohub,2014-04-01 05:17:00,
2014-04-01 01:22:00,36.3,35.2,30.05,ESE,118,2.0,3.0,96,0.00,,,0.00,meteohub,2014-04-01 05:22:00,
2014-04-01 01:27:00,41.4,35.4,30.05,ESE,117,5.0,7.0,79,0.00,,,0.00,meteohub,2014-04-01 05:27:00,
2014-04-01 01:32:00,43.7,34.9,30.05,ESE,121,5.0,9.0,71,0.00,,,0.00,meteohub,2014-04-01 05:32:00,
2014-04-01 01:37:00,44.6,34.7,30.04,ESE,120,4.0,9.0,68,0.00,,,0.00,meteohub,2014-04-01 05:37:00,
2014-04-01 01:42:00,45.1,34.5,30.04,SE,136,7.0,9.0,66,0.00,,,0.00,meteohub,2014-04-01 05:42:00,
2014-04-01 01:48:00,45.3,34.3,30.04,SE,127,15.0,15.0,65,0.00,,,0.00,meteohub,2014-04-01 05:48:00,
2014-04-01 01:53:00,45.7,34.2,30.03,SSE,150,5.0,12.0,64,0.00,,,0.00,meteohub,2014-04-01 05:53:00,
2014-04-01 01:58:00,45.9,34.0,30.03,SE,138,6.0,15.0,63,0.00,,,0.00,meteohub,2014-04-01 05:58:00,
2014-04-01 02:04:00,46.2,34.0,30.03,SSE,153,5.0,15.0,62,0.00,,,0.00,meteohub,2014-04-01 06:04:00,
2014-04-01 02:09:00,46.2,34.0,30.03,SSE,166,11.0,15.0,62,0.00,,,0.00,meteohub,2014-04-01 06:09:00,
2014-04-01 02:15:00,46.2,34.0,30.02,SE,129,6.0,15.0,62,0.00,,,0.00,meteohub,2014-04-01 06:15:00,
2014-04-01 02:20:00,46.0,33.3,30.03,SSE,157,7.0,14.0,61,0.00,,,0.00,meteohub,2014-04-01 06:20:00,
2014-04-01 02:25:00,45.9,33.6,30.02,SE,141,4.0,15.0,62,0.00,,,0.00,meteohub,2014-04-01 06:25:00,
2014-04-01 02:31:00,45.7,33.4,30.02,SSE,155,4.0,15.0,62,0.00,,,0.00,meteohub,2014-04-01 06:31:00,
2014-04-01 02:36:00,45.5,33.3,30.01,SE,146,12.0,15.0,62,0.00,,,0.00,meteohub,2014-04-01 06:36:00,
2014-04-01 02:42:00,45.3,32.7,30.01,SE,139,3.0,15.0,61,0.00,,,0.00,meteohub,2014-04-01 06:42:00,
2014-04-01 02:47:00,45.5,32.4,30.02,SE,128,9.0,15.0,60,0.00,,,0.00,meteohub,2014-04-01 06:47:00,
2014-04-01 02:52:00,45.7,32.2,30.02,SE,143,8.0,13.0,59,0.00,,,0.00,meteohub,2014-04-01 06:52:00,
2014-04-01 02:57:00,46.0,32.0,30.02,SSE,160,7.0,13.0,58,0.00,,,0.00,meteohub,2014-04-01 06:57:00,
2014-04-01 03:02:00,46.2,31.8,30.02,ESE,120,10.0,14.0,57,0.00,,,0.00,meteohub,2014-04-01 07:02:00,
2014-04-01 03:07:00,46.6,31.6,30.01,SSE,164,8.0,14.0,56,0.00,,,0.00,meteohub,2014-04-01 07:07:00,
2014-04-01 03:12:00,46.6,31.3,30.01,SE,134,4.0,14.0,55,0.00,,,0.00,meteohub,2014-04-01 07:12:00,
2014-04-01 03:17:00,46.8,31.5,30.01,SSE,153,14.0,14.0,55,0.00,,,0.00,meteohub,2014-04-01 07:17:00,
2014-04-01 03:22:00,46.8,30.9,30.01,SSE,148,11.0,15.0,54,0.00,,,0.00,meteohub,2014-04-01 07:22:00,
2014-04-01 03:27:00,46.9,31.1,30.01,SE,146,11.0,18.0,54,0.00,,,0.00,meteohub,2014-04-01 07:27:00,
2014-04-01 03:32:00,46.8,30.9,30.01,SE,136,14.0,18.0,54,0.00,,,0.00,meteohub,2014-04-01 07:32:00,
2014-04-01 03:37:00,46.8,30.9,30.01,SE,144,9.0,18.0,54,0.00,,,0.00,meteohub,2014-04-01 07:37:00,
2014-04-01 03:42:00,46.8,30.9,30.00,SSW,195,12.0,18.0,54,0.00,,,0.00,meteohub,2014-04-01 07:42:00,
2014-04-01 03:47:00,46.8,30.9,30.00,SSE,165,10.0,18.0,54,0.00,,,0.00,meteohub,2014-04-01 07:47:00,
2014-04-01 03:52:00,46.6,31.3,30.00,SSE,147,14.0,19.0,55,0.00,,,0.00,meteohub,2014-04-01 07:52:00,
2014-04-01 03:58:00,46.2,30.9,30.00,SSE,157,7.0,19.0,55,0.00,,,0.00,meteohub,2014-04-01 07:58:00,
2014-04-01 04:03:00,46.0,31.3,30.00,SSE,163,8.0,22.0,56,0.00,,,0.00,meteohub,2014-04-01 08:03:00,
2014-04-01 04:08:00,46.0,31.3,30.01,South,172,9.0,22.0,56,0.00,,,0.00,meteohub,2014-04-01 08:08:00,
2014-04-01 04:14:00,45.9,31.1,30.00,SSE,155,10.0,22.0,56,0.00,,,0.00,meteohub,2014-04-01 08:14:00,
2014-04-01 04:19:00,45.9,31.5,30.00,SE,141,12.0,18.0,57,0.00,,,0.00,meteohub,2014-04-01 08:19:00,
2014-04-01 04:24:00,45.7,31.3,30.00,South,179,11.0,20.0,57,0.00,,,0.00,meteohub,2014-04-01 08:24:00,
2014-04-01 04:29:00,45.5,31.1,30.01,SSE,161,11.0,23.0,57,0.00,,,0.00,meteohub,2014-04-01 08:29:00,
2014-04-01 04:35:00,45.5,31.1,30.01,South,171,14.0,21.0,57,0.00,,,0.00,meteohub,2014-04-01 08:35:00,
2014-04-01 04:40:00,45.3,31.5,30.01,SE,138,12.0,19.0,58,0.00,,,0.00,meteohub,2014-04-01 08:40:00,
2014-04-01 04:45:00,45.3,30.9,30.01,SSE,150,9.0,19.0,57,0.00,,,0.00,meteohub,2014-04-01 08:45:00,
2014-04-01 04:51:00,45.3,30.9,30.01,SSE,157,11.0,19.0,57,0.00,,,0.00,meteohub,2014-04-01 08:51:00,
2014-04-01 04:56:00,45.5,31.1,30.00,SSE,165,5.0,20.0,57,0.00,,,0.00,meteohub,2014-04-01 08:56:00,
2014-04-01 05:02:00,45.5,31.1,30.00,SSE,157,11.0,20.0,57,0.00,,,0.00,meteohub,2014-04-01 09:02:00,
2014-04-01 05:07:00,45.5,31.6,30.00,SSE,160,10.0,20.0,58,0.00,,,0.00,meteohub,2014-04-01 09:07:00,
2014-04-01 05:12:00,45.7,31.3,30.00,South,186,10.0,20.0,57,0.00,,,0.00,meteohub,2014-04-01 09:12:00,
2014-04-01 05:17:00,45.5,31.1,30.00,SSE,150,10.0,20.0,57,0.00,,,0.00,meteohub,2014-04-01 09:17:00,
2014-04-01 05:22:00,45.3,31.5,30.00,SSE,148,7.0,20.0,58,0.00,,,0.00,meteohub,2014-04-01 09:22:00,
2014-04-01 05:27:00,45.3,31.5,30.00,SE,139,12.0,21.0,58,0.00,,,0.00,meteohub,2014-04-01 09:27:00,
2014-04-01 05:32:00,45.3,31.5,30.00,SSE,166,10.0,21.0,58,0.00,,,0.00,meteohub,2014-04-01 09:32:00,
2014-04-01 05:37:00,45.1,31.6,30.00,SE,143,13.0,21.0,59,0.00,,,0.00,meteohub,2014-04-01 09:37:00,
2014-04-01 05:42:00,45.1,31.6,29.99,SSE,164,16.0,19.0,59,0.00,,,0.00,meteohub,2014-04-01 09:42:00,
2014-04-01 05:47:00,45.1,31.6,29.99,SSE,155,8.0,18.0,59,0.00,,,0.00,meteohub,2014-04-01 09:47:00,
2014-04-01 05:52:00,45.0,31.5,29.99,SSE,155,13.0,24.0,59,0.00,,,0.00,meteohub,2014-04-01 09:52:00,
2014-04-01 05:57:00,45.0,32.0,29.99,SE,140,13.0,24.0,60,0.00,,,0.00,meteohub,2014-04-01 09:57:00,
2014-04-01 06:02:00,45.0,32.0,29.99,SE,127,10.0,21.0,60,0.00,,,0.00,meteohub,2014-04-01 10:02:00,
2014-04-01 06:07:00,45.0,32.0,29.99,South,186,15.0,20.0,60,0.00,,,0.00,meteohub,2014-04-01 10:07:00,
2014-04-01 06:12:00,45.0,32.0,29.99,South,183,10.0,20.0,60,0.00,,,0.00,meteohub,2014-04-01 10:12:00,
2014-04-01 06:17:00,44.8,31.8,29.98,South,184,17.0,19.0,60,0.00,,,0.00,meteohub,2014-04-01 10:17:00,
2014-04-01 06:22:00,44.6,32.0,29.98,SSE,153,13.0,23.0,61,0.00,,,0.00,meteohub,2014-04-01 10:22:00,
2014-04-01 06:27:00,44.4,32.2,29.98,SSE,167,17.0,23.0,62,0.00,,,0.00,meteohub,2014-04-01 10:27:00,
2014-04-01 06:32:00,44.4,31.8,29.98,South,175,12.0,23.0,61,0.00,,,0.00,meteohub,2014-04-01 10:32:00,
2014-04-01 06:37:00,44.4,31.8,29.98,SSE,167,13.0,23.0,61,0.00,,,0.00,meteohub,2014-04-01 10:37:00,
2014-04-01 06:42:00,44.4,32.2,29.98,SSE,147,10.0,23.0,62,0.00,,,0.00,meteohub,2014-04-01 10:42:00,
2014-04-01 06:47:00,44.4,32.2,29.98,SSE,161,12.0,21.0,62,0.00,,,0.00,meteohub,2014-04-01 10:47:00,
2014-04-01 06:52:00,44.2,32.0,29.98,SSE,156,12.0,21.0,62,0.00,,,0.00,meteohub,2014-04-01 10:52:00,
2014-04-01 06:57:00,44.2,32.4,29.98,SE,141,9.0,23.0,63,0.00,,,0.00,meteohub,2014-04-01 10:57:00,
2014-04-01 07:02:00,44.1,32.4,29.97,SE,141,20.0,23.0,63,0.00,,,0.00,meteohub,2014-04-01 11:02:00,
2014-04-01 07:07:00,43.9,32.2,29.97,SSE,148,11.0,24.0,63,0.00,,,0.00,meteohub,2014-04-01 11:07:00,
2014-04-01 07:12:00,43.9,32.5,29.97,South,171,13.0,24.0,64,0.00,,,0.00,meteohub,2014-04-01 11:12:00,
2014-04-01 07:17:00,43.9,32.5,29.97,South,176,8.0,24.0,64,0.00,,,0.00,meteohub,2014-04-01 11:17:00,
2014-04-01 07:22:00,43.9,32.5,29.98,SSE,157,6.0,23.0,64,0.00,,,0.00,meteohub,2014-04-01 11:22:00,
2014-04-01 07:27:00,44.1,32.7,29.98,SSE,151,13.0,18.0,64,0.00,,,0.00,meteohub,2014-04-01 11:27:00,
2014-04-01 07:32:00,44.1,32.7,29.98,ESE,121,6.0,16.0,64,0.00,,,0.00,meteohub,2014-04-01 11:32:00,
2014-04-01 07:37:00,44.1,32.4,29.97,South,190,15.0,18.0,63,0.00,,,0.00,meteohub,2014-04-01 11:37:00,
2014-04-01 07:42:00,44.1,32.7,29.97,South,184,10.0,19.0,64,0.00,,,0.00,meteohub,2014-04-01 11:42:00,
2014-04-01 07:47:00,44.1,32.4,29.97,SSE,150,12.0,19.0,63,0.00,,,0.00,meteohub,2014-04-01 11:47:00,
2014-04-01 07:52:00,44.2,32.4,29.97,South,169,10.0,19.0,63,0.00,,,0.00,meteohub,2014-04-01 11:52:00,
2014-04-01 07:57:00,44.2,32.4,29.96,SSE,162,9.0,19.0,63,0.00,,,0.00,meteohub,2014-04-01 11:57:00,
2014-04-01 08:02:00,44.4,32.5,29.95,SE,144,16.0,21.0,63,0.00,,,0.00,meteohub,2014-04-01 12:02:00,
2014-04-01 08:07:00,44.6,32.4,29.95,South,171,18.0,21.0,62,0.00,,,0.00,meteohub,2014-04-01 12:07:00,
2014-04-01 08:12:00,44.8,32.5,29.94,South,171,19.0,21.0,62,0.00,,,0.00,meteohub,2014-04-01 12:12:00,
2014-04-01 08:17:00,44.8,32.5,29.94,SSE,157,15.0,23.0,62,0.00,,,0.00,meteohub,2014-04-01 12:17:00,
2014-04-01 08:22:00,45.0,32.7,29.94,North,0,17.0,25.0,62,0.00,,,0.00,meteohub,2014-04-01 12:22:00,
2014-04-01 08:27:00,45.0,32.7,29.94,SSE,155,21.0,25.0,62,0.00,,,0.00,meteohub,2014-04-01 12:27:00,
2014-04-01 08:32:00,45.0,32.7,29.93,SSE,149,22.0,28.0,62,0.00,,,0.00,meteohub,2014-04-01 12:32:00,
2014-04-01 08:37:00,45.1,32.5,29.93,South,173,12.0,28.0,61,0.00,,,0.00,meteohub,2014-04-01 12:37:00,
2014-04-01 08:42:00,45.3,32.7,29.92,SE,146,21.0,28.0,61,0.00,,,0.00,meteohub,2014-04-01 12:42:00,
2014-04-01 08:47:00,45.5,32.9,29.93,SSE,161,21.0,28.0,61,0.00,,,0.00,meteohub,2014-04-01 12:47:00,
2014-04-01 08:52:00,45.7,33.1,29.92,SE,142,20.0,27.0,61,0.00,,,0.00,meteohub,2014-04-01 12:52:00,
2014-04-01 08:57:00,45.9,32.7,29.92,SSE,160,14.0,27.0,60,0.00,,,0.00,meteohub,2014-04-01 12:57:00,
2014-04-01 09:02:00,46.0,32.9,29.92,SSE,153,19.0,27.0,60,0.00,,,0.00,meteohub,2014-04-01 13:02:00,
2014-04-01 09:07:00,46.2,33.1,29.92,SSE,157,24.0,27.0,60,0.00,,,0.00,meteohub,2014-04-01 13:07:00,
2014-04-01 09:12:00,46.6,33.1,29.92,SSE,156,13.0,28.0,59,0.00,,,0.00,meteohub,2014-04-01 13:12:00,
2014-04-01 09:17:00,46.8,33.3,29.91,SSE,162,12.0,28.0,59,0.00,,,0.00,meteohub,2014-04-01 13:17:00,
2014-04-01 09:22:00,46.9,33.4,29.92,South,169,17.0,28.0,59,0.00,,,0.00,meteohub,2014-04-01 13:22:00,
2014-04-01 09:27:00,47.1,33.1,29.92,SSE,157,22.0,28.0,58,0.00,,,0.00,meteohub,2014-04-01 13:27:00,
2014-04-01 09:32:00,47.3,33.3,29.91,SSW,198,11.0,28.0,58,0.00,,,0.00,meteohub,2014-04-01 13:32:00,
2014-04-01 09:37:00,47.5,33.4,29.91,SSE,150,19.0,25.0,58,0.00,,,0.00,meteohub,2014-04-01 13:37:00,
2014-04-01 09:42:00,47.8,33.8,29.91,South,174,23.0,26.0,58,0.00,,,0.00,meteohub,2014-04-01 13:42:00,
2014-04-01 09:47:00,47.8,33.8,29.91,SSE,157,12.0,30.0,58,0.00,,,0.00,meteohub,2014-04-01 13:47:00,
2014-04-01 09:52:00,48.0,34.0,29.91,North,0,16.0,30.0,58,0.00,,,0.00,meteohub,2014-04-01 13:52:00,
2014-04-01 09:57:00,48.0,34.0,29.91,SE,145,15.0,30.0,58,0.00,,,0.00,meteohub,2014-04-01 13:57:00,
2014-04-01 10:02:00,48.0,34.0,29.90,SE,133,12.0,26.0,58,0.00,,,0.00,meteohub,2014-04-01 14:02:00,
2014-04-01 10:07:00,48.2,34.2,29.90,SSE,155,16.0,26.0,58,0.00,,,0.00,meteohub,2014-04-01 14:07:00,
2014-04-01 10:12:00,48.4,34.3,29.89,North,0,13.0,25.0,58,0.00,,,0.00,meteohub,2014-04-01 14:12:00,
2014-04-01 10:17:00,48.6,34.0,29.89,SE,144,11.0,23.0,57,0.00,,,0.00,meteohub,2014-04-01 14:17:00,
2014-04-01 10:22:00,48.6,34.5,29.89,SSE,159,12.0,24.0,58,0.00,,,0.00,meteohub,2014-04-01 14:22:00,
2014-04-01 10:27:00,48.7,34.7,29.89,SE,145,12.0,24.0,58,0.00,,,0.00,meteohub,2014-04-01 14:27:00,
2014-04-01 10:32:00,48.9,34.9,29.89,SSW,196,12.0,23.0,58,0.00,,,0.00,meteohub,2014-04-01 14:32:00,
2014-04-01 10:37:00,49.5,34.9,29.88,SSW,199,21.0,27.0,57,0.00,,,0.00,meteohub,2014-04-01 14:37:00,
2014-04-01 10:42:00,49.8,34.7,29.89,SSW,211,12.0,27.0,56,0.00,,,0.00,meteohub,2014-04-01 14:42:00,
2014-04-01 10:47:00,50.2,35.1,29.89,SSE,147,7.0,28.0,56,0.00,,,0.00,meteohub,2014-04-01 14:47:00,
2014-04-01 10:52:00,50.4,35.2,29.89,South,188,11.0,28.0,56,0.00,,,0.00,meteohub,2014-04-01 14:52:00,
2014-04-01 10:57:00,50.7,35.1,29.88,SSE,168,6.0,25.0,55,0.00,,,0.00,meteohub,2014-04-01 14:57:00,
2014-04-01 11:02:00,51.1,35.4,29.88,North,0,19.0,26.0,55,0.00,,,0.00,meteohub,2014-04-01 15:02:00,
2014-04-01 11:07:00,51.4,35.8,29.87,South,171,16.0,26.0,55,0.00,,,0.00,meteohub,2014-04-01 15:07:00,
2014-04-01 11:12:00,51.8,35.2,29.86,North,0,11.0,26.0,53,0.00,,,0.00,meteohub,2014-04-01 15:12:00,
2014-04-01 11:17:00,52.2,36.0,29.85,SSE,164,11.0,25.0,54,0.00,,,0.00,meteohub,2014-04-01 15:17:00,
2014-04-01 11:22:00,52.5,36.0,29.85,South,176,12.0,25.0,53,0.00,,,0.00,meteohub,2014-04-01 15:22:00,
2014-04-01 11:27:00,52.9,36.1,29.85,SE,146,24.0,24.0,53,0.00,,,0.00,meteohub,2014-04-01 15:27:00,
2014-04-01 11:32:00,52.9,36.1,29.84,SSE,163,12.0,26.0,53,0.00,,,0.00,meteohub,2014-04-01 15:32:00,
2014-04-01 11:38:00,52.9,36.1,29.85,SSE,155,11.0,26.0,53,0.00,,,0.00,meteohub,2014-04-01 15:38:00,
2014-04-01 11:43:00,53.2,36.5,29.84,SE,144,9.0,26.0,53,0.00,,,0.00,meteohub,2014-04-01 15:43:00,
2014-04-01 11:49:00,53.4,36.7,29.84,SSW,194,13.0,25.0,53,0.00,,,0.00,meteohub,2014-04-01 15:49:00,
2014-04-01 11:54:00,53.8,37.0,29.84,SE,125,14.0,19.0,53,0.00,,,0.00,meteohub,2014-04-01 15:54:00,
2014-04-01 12:00:00,54.0,36.7,29.82,SE,144,6.0,20.0,52,0.00,,,0.00,meteohub,2014-04-01 16:00:00,
2014-04-01 12:05:00,54.1,36.9,29.82,SSE,153,7.0,20.0,52,0.00,,,0.00,meteohub,2014-04-01 16:05:00,
2014-04-01 12:10:00,54.5,37.8,29.81,SSE,147,12.0,18.0,53,0.00,,,0.00,meteohub,2014-04-01 16:10:00,
2014-04-01 12:15:00,54.9,37.6,29.81,SSE,155,6.0,18.0,52,0.00,,,0.00,meteohub,2014-04-01 16:15:00,
2014-04-01 12:20:00,55.4,38.1,29.80,SSE,153,4.0,16.0,52,0.00,,,0.00,meteohub,2014-04-01 16:20:00,
2014-04-01 12:26:00,55.8,38.5,29.80,North,0,11.0,15.0,52,0.00,,,0.00,meteohub,2014-04-01 16:26:00,
2014-04-01 12:31:00,56.5,38.7,29.80,South,184,10.0,20.0,51,0.00,,,0.00,meteohub,2014-04-01 16:31:00,
2014-04-01 12:36:00,57.0,39.0,29.80,SSE,159,8.0,20.0,51,0.00,,,0.00,meteohub,2014-04-01 16:36:00,
2014-04-01 12:41:00,57.7,39.2,29.79,SSW,195,6.0,23.0,50,0.00,,,0.00,meteohub,2014-04-01 16:41:00,
2014-04-01 12:46:00,58.3,39.7,29.79,South,184,10.0,23.0,50,0.00,,,0.00,meteohub,2014-04-01 16:46:00,
2014-04-01 12:51:00,58.3,39.7,29.78,South,181,15.0,23.0,50,0.00,,,0.00,meteohub,2014-04-01 16:51:00,
2014-04-01 12:57:00,58.5,39.9,29.78,SE,136,16.0,26.0,50,0.00,,,0.00,meteohub,2014-04-01 16:57:00,
2014-04-01 13:02:00,58.8,40.3,29.78,South,184,15.0,31.0,50,0.00,,,0.00,meteohub,2014-04-01 17:02:00,
2014-04-01 13:07:00,59.4,41.2,29.76,South,178,10.0,31.0,51,0.00,,,0.00,meteohub,2014-04-01 17:07:00,
2014-04-01 13:12:00,60.4,41.7,29.76,SSE,163,13.0,31.0,50,0.00,,,0.00,meteohub,2014-04-01 17:12:00,
2014-04-01 13:17:00,61.0,41.7,29.76,North,0,14.0,26.0,49,0.00,,,0.00,meteohub,2014-04-01 17:17:00,
2014-04-01 13:22:00,61.2,41.9,29.76,South,171,20.0,33.0,49,0.00,,,0.00,meteohub,2014-04-01 17:22:00,
2014-04-01 13:27:00,61.5,42.6,29.75,South,183,15.0,33.0,50,0.00,,,0.00,meteohub,2014-04-01 17:27:00,
2014-04-01 13:32:00,62.4,43.5,29.75,SSE,161,11.0,30.0,50,0.00,,,0.00,meteohub,2014-04-01 17:32:00,
2014-04-01 13:37:00,63.0,43.5,29.74,South,180,18.0,32.0,49,0.00,,,0.00,meteohub,2014-04-01 17:37:00,
2014-04-01 13:42:00,63.1,43.7,29.74,SSW,209,13.0,32.0,49,0.00,,,0.00,meteohub,2014-04-01 17:42:00,
2014-04-01 13:47:00,63.7,44.2,29.73,SW,229,17.0,30.0,49,0.00,,,0.00,meteohub,2014-04-01 17:47:00,
2014-04-01 13:52:00,63.9,44.2,29.73,SSW,203,16.0,30.0,49,0.00,,,0.00,meteohub,2014-04-01 17:52:00,
2014-04-01 13:57:00,64.2,44.6,29.73,SSW,203,25.0,30.0,49,0.00,,,0.00,meteohub,2014-04-01 17:57:00,
2014-04-01 14:02:00,64.8,45.1,29.73,SW,221,22.0,33.0,49,0.00,,,0.00,meteohub,2014-04-01 18:02:00,
2014-04-01 14:07:00,65.1,45.0,29.72,SSW,192,22.0,33.0,48,0.00,,,0.00,meteohub,2014-04-01 18:07:00,
2014-04-01 14:12:00,65.1,45.5,29.72,South,179,25.0,33.0,49,0.00,,,0.00,meteohub,2014-04-01 18:12:00,
2014-04-01 14:17:00,65.5,45.9,29.71,SSW,196,13.0,34.0,49,0.00,,,0.00,meteohub,2014-04-01 18:17:00,
2014-04-01 14:22:00,65.8,46.2,29.71,SSW,208,24.0,34.0,49,0.00,,,0.00,meteohub,2014-04-01 18:22:00,
2014-04-01 14:27:00,66.4,46.0,29.70,SSW,200,27.0,30.0,48,0.00,,,0.00,meteohub,2014-04-01 18:27:00,
2014-04-01 14:32:00,66.6,46.8,29.70,SSW,202,12.0,31.0,49,0.00,,,0.00,meteohub,2014-04-01 18:32:00,
2014-04-01 14:38:00,66.4,46.6,29.70,SW,219,14.0,31.0,49,0.00,,,0.00,meteohub,2014-04-01 18:38:00,
2014-04-01 14:43:00,66.9,47.1,29.70,South,178,14.0,32.0,49,0.00,,,0.00,meteohub,2014-04-01 18:43:00,
2014-04-01 14:49:00,67.5,47.1,29.70,SW,221,14.0,32.0,48,0.00,,,0.00,meteohub,2014-04-01 18:49:00,
2014-04-01 14:54:00,67.6,46.8,29.70,SW,224,13.0,30.0,47,0.00,,,0.00,meteohub,2014-04-01 18:54:00,
2014-04-01 15:00:00,67.8,46.9,29.70,SW,219,11.0,30.0,47,0.00,,,0.00,meteohub,2014-04-01 19:00:00,
2014-04-01 15:05:00,68.4,46.8,29.70,WSW,240,17.0,25.0,46,0.00,,,0.00,meteohub,2014-04-01 19:05:00,
2014-04-01 15:10:00,68.5,46.9,29.70,SW,233,14.0,25.0,46,0.00,,,0.00,meteohub,2014-04-01 19:10:00,
2014-04-01 15:16:00,68.7,47.1,29.70,SSW,192,17.0,25.0,46,0.00,,,0.00,meteohub,2014-04-01 19:16:00,
2014-04-01 15:21:00,69.3,47.7,29.69,SSW,211,10.0,25.0,46,0.00,,,0.00,meteohub,2014-04-01 19:21:00,
2014-04-01 15:27:00,69.1,46.2,29.69,SW,223,23.0,25.0,44,0.00,,,0.00,meteohub,2014-04-01 19:27:00,
2014-04-01 15:32:00,69.3,46.9,29.69,WSW,238,23.0,31.0,45,0.00,,,0.00,meteohub,2014-04-01 19:32:00,
2014-04-01 15:37:00,69.4,46.6,29.68,SW,229,16.0,34.0,44,0.00,,,0.00,meteohub,2014-04-01 19:37:00,
2014-04-01 15:42:00,69.4,46.6,29.68,SW,229,23.0,34.0,44,0.00,,,0.00,meteohub,2014-04-01 19:42:00,
2014-04-01 15:47:00,69.4,47.1,29.69,WSW,254,19.0,37.0,45,0.00,,,0.00,meteohub,2014-04-01 19:47:00,
2014-04-01 15:52:00,69.4,47.1,29.68,SSW,208,27.0,37.0,45,0.00,,,0.00,meteohub,2014-04-01 19:52:00,
2014-04-01 15:57:00,70.0,47.7,29.68,WSW,246,25.0,37.0,45,0.00,,,0.00,meteohub,2014-04-01 19:57:00,
2014-04-01 16:02:00,70.3,48.0,29.68,WSW,239,15.0,33.0,45,0.00,,,0.00,meteohub,2014-04-01 20:02:00,
2014-04-01 16:07:00,70.5,46.9,29.68,SW,230,17.0,33.0,43,0.00,,,0.00,meteohub,2014-04-01 20:07:00,
2014-04-01 16:12:00,70.0,47.1,29.68,WSW,257,19.0,31.0,44,0.00,,,0.00,meteohub,2014-04-01 20:12:00,
2014-04-01 16:17:00,67.6,45.5,29.70,WSW,257,25.0,30.0,45,0.00,,,0.00,meteohub,2014-04-01 20:17:00,
2014-04-01 16:22:00,60.4,43.7,29.71,West,264,20.0,31.0,54,0.00,,,0.00,meteohub,2014-04-01 20:22:00,
2014-04-01 16:27:00,57.9,42.8,29.72,West,259,19.0,31.0,57,0.00,,,0.00,meteohub,2014-04-01 20:27:00,
2014-04-01 16:32:00,55.6,42.3,29.73,West,259,22.0,31.0,61,0.00,,,0.00,meteohub,2014-04-01 20:32:00,
2014-04-01 16:37:00,53.4,41.5,29.73,WSW,258,20.0,27.0,64,0.00,,,0.00,meteohub,2014-04-01 20:37:00,
2014-04-01 16:42:00,51.6,41.0,29.74,WSW,250,18.0,28.0,67,0.00,,,0.00,meteohub,2014-04-01 20:42:00,
2014-04-01 16:47:00,51.3,41.4,29.75,West,261,22.0,28.0,69,0.00,,,0.00,meteohub,2014-04-01 20:47:00,
2014-04-01 16:52:00,49.8,40.8,29.75,West,261,19.0,27.0,71,0.00,,,0.00,meteohub,2014-04-01 20:52:00,
2014-04-01 16:57:00,49.3,41.0,29.77,WSW,252,23.0,27.0,73,0.00,,,0.00,meteohub,2014-04-01 20:57:00,
2014-04-01 17:02:00,49.3,41.0,29.77,WSW,256,17.0,27.0,73,0.00,,,0.00,meteohub,2014-04-01 21:02:00,
2014-04-01 17:07:00,48.9,41.4,29.77,WSW,250,19.0,26.0,75,0.00,,,0.00,meteohub,2014-04-01 21:07:00,
2014-04-01 17:12:00,49.3,41.7,29.77,WSW,250,15.0,24.0,75,0.00,,,0.00,meteohub,2014-04-01 21:12:00,
2014-04-01 17:17:00,49.6,41.7,29.77,WSW,242,14.0,22.0,74,0.00,,,0.00,meteohub,2014-04-01 21:17:00,
2014-04-01 17:22:00,50.4,42.1,29.77,WSW,255,19.0,20.0,73,0.00,,,0.00,meteohub,2014-04-01 21:22:00,
2014-04-01 17:27:00,49.8,41.5,29.77,WSW,248,14.0,22.0,73,0.00,,,0.00,meteohub,2014-04-01 21:27:00,
2014-04-01 17:32:00,49.6,41.4,29.78,WSW,247,22.0,22.0,73,0.00,,,0.00,meteohub,2014-04-01 21:32:00,
2014-04-01 17:37:00,50.2,41.5,29.78,WSW,257,20.0,26.0,72,0.00,,,0.00,meteohub,2014-04-01 21:37:00,
2014-04-01 17:42:00,49.8,41.5,29.78,West,263,18.0,26.0,73,0.00,,,0.00,meteohub,2014-04-01 21:42:00,
2014-04-01 17:47:00,49.3,41.0,29.78,WSW,253,19.0,26.0,73,0.00,,,0.00,meteohub,2014-04-01 21:47:00,
2014-04-01 17:52:00,48.7,40.8,29.78,WSW,252,15.0,25.0,74,0.00,,,0.00,meteohub,2014-04-01 21:52:00,
2014-04-01 17:57:00,49.1,41.2,29.78,WSW,244,17.0,25.0,74,0.00,,,0.00,meteohub,2014-04-01 21:57:00,
2014-04-01 18:02:00,49.5,41.2,29.78,WSW,258,20.0,27.0,73,0.00,,,0.00,meteohub,2014-04-01 22:02:00,
2014-04-01 18:07:00,49.5,41.5,29.79,WSW,252,21.0,27.0,74,0.00,,,0.00,meteohub,2014-04-01 22:07:00,
2014-04-01 18:12:00,49.8,41.2,29.79,WSW,247,17.0,30.0,72,0.00,,,0.00,meteohub,2014-04-01 22:12:00,
2014-04-01 18:17:00,49.8,40.8,29.80,West,263,24.0,30.0,71,0.00,,,0.00,meteohub,2014-04-01 22:17:00,
2014-04-01 18:22:00,49.6,40.6,29.79,West,260,24.0,30.0,71,0.00,,,0.00,meteohub,2014-04-01 22:22:00,
2014-04-01 18:27:00,49.3,40.3,29.81,West,264,20.0,28.0,71,0.00,,,0.00,meteohub,2014-04-01 22:27:00,
2014-04-01 18:32:00,48.7,40.1,29.80,WSW,254,18.0,28.0,72,0.00,,,0.00,meteohub,2014-04-01 22:32:00,
2014-04-01 18:38:00,48.6,39.9,29.81,WSW,246,22.0,28.0,72,0.00,,,0.00,meteohub,2014-04-01 22:38:00,
2014-04-01 18:43:00,48.4,40.1,29.81,WSW,249,23.0,28.0,73,0.00,,,0.00,meteohub,2014-04-01 22:43:00,
2014-04-01 18:48:00,48.6,39.9,29.81,WSW,250,25.0,25.0,72,0.00,,,0.00,meteohub,2014-04-01 22:48:00,
2014-04-01 18:54:00,48.9,40.3,29.81,West,261,18.0,25.0,72,0.00,,,0.00,meteohub,2014-04-01 22:54:00,
2014-04-01 18:59:00,48.9,39.9,29.81,West,259,24.0,26.0,71,0.00,,,0.00,meteohub,2014-04-01 22:59:00,
2014-04-01 19:05:00,48.7,40.1,29.81,WSW,251,18.0,26.0,72,0.00,,,0.00,meteohub,2014-04-01 23:05:00,
2014-04-01 19:10:00,48.6,39.9,29.82,WSW,254,22.0,28.0,72,0.00,,,0.00,meteohub,2014-04-01 23:10:00,
2014-04-01 19:15:00,48.0,39.4,29.82,WSW,254,18.0,26.0,72,0.00,,,0.00,meteohub,2014-04-01 23:15:00,
2014-04-01 19:21:00,48.2,39.6,29.83,West,259,18.0,26.0,72,0.00,,,0.00,meteohub,2014-04-01 23:21:00,
2014-04-01 19:26:00,48.9,39.9,29.83,WSW,256,18.0,23.0,71,0.00,,,0.00,meteohub,2014-04-01 23:26:00,
2014-04-01 19:31:00,49.5,40.1,29.83,West,260,20.0,23.0,70,0.00,,,0.00,meteohub,2014-04-01 23:31:00,
2014-04-01 19:37:00,49.3,39.9,29.84,WSW,256,23.0,25.0,70,0.00,,,0.00,meteohub,2014-04-01 23:37:00,
2014-04-01 19:42:00,48.7,39.4,29.84,WSW,257,17.0,25.0,70,0.00,,,0.00,meteohub,2014-04-01 23:42:00,
2014-04-01 19:47:00,48.0,39.0,29.84,WSW,251,21.0,25.0,71,0.00,,,0.00,meteohub,2014-04-01 23:47:00,
2014-04-01 19:52:00,48.0,39.4,29.85,WSW,252,17.0,23.0,72,0.00,,,0.00,meteohub,2014-04-01 23:52:00,
2014-04-01 19:57:00,47.8,39.6,29.85,West,263,22.0,23.0,73,0.00,,,0.00,meteohub,2014-04-01 23:57:00,
2014-04-01 20:02:00,47.8,39.2,29.86,WSW,244,21.0,25.0,72,0.00,,,0.00,meteohub,2014-04-02 00:02:00,
2014-04-01 20:07:00,48.0,39.4,29.86,WSW,254,21.0,28.0,72,0.00,,,0.00,meteohub,2014-04-02 00:07:00,
2014-04-01 20:12:00,48.0,38.7,29.87,WSW,247,28.0,28.0,70,0.00,,,0.00,meteohub,2014-04-02 00:12:00,
2014-04-01 20:17:00,47.7,38.3,29.87,WSW,238,22.0,32.0,70,0.00,,,0.00,meteohub,2014-04-02 00:17:00,
2014-04-01 20:22:00,46.9,38.1,29.88,WSW,249,25.0,32.0,71,0.00,,,0.00,meteohub,2014-04-02 00:22:00,
2014-04-01 20:27:00,46.8,38.3,29.88,WSW,250,24.0,32.0,72,0.00,,,0.00,meteohub,2014-04-02 00:27:00,
2014-04-01 20:32:00,46.6,38.1,29.88,WSW,244,21.0,29.0,72,0.00,,,0.00,meteohub,2014-04-02 00:32:00,
2014-04-01 20:37:00,46.6,38.1,29.88,WSW,246,27.0,31.0,72,0.00,,,0.00,meteohub,2014-04-02 00:37:00,
2014-04-01 20:42:00,46.0,37.6,29.89,WSW,250,20.0,33.0,72,0.00,,,0.00,meteohub,2014-04-02 00:42:00,
2014-04-01 20:47:00,45.7,37.6,29.89,WSW,245,24.0,33.0,73,0.00,,,0.00,meteohub,2014-04-02 00:47:00,
2014-04-01 20:52:00,45.3,37.6,29.89,WSW,251,26.0,33.0,74,0.00,,,0.00,meteohub,2014-04-02 00:52:00,
2014-04-01 20:57:00,45.1,37.4,29.90,WSW,250,22.0,30.0,74,0.00,,,0.00,meteohub,2014-04-02 00:57:00,
2014-04-01 21:02:00,45.0,37.2,29.90,WSW,246,22.0,30.0,74,0.00,,,0.00,meteohub,2014-04-02 01:02:00,
2014-04-01 21:07:00,45.0,37.2,29.91,WSW,247,22.0,28.0,74,0.00,,,0.00,meteohub,2014-04-02 01:07:00,
2014-04-01 21:12:00,45.0,37.2,29.91,West,260,18.0,28.0,74,0.00,,,0.00,meteohub,2014-04-02 01:12:00,
2014-04-01 21:17:00,45.1,37.4,29.91,WSW,250,20.0,28.0,74,0.00,,,0.00,meteohub,2014-04-02 01:17:00,
2014-04-01 21:22:00,45.3,37.2,29.91,WSW,247,26.0,29.0,73,0.00,,,0.00,meteohub,2014-04-02 01:22:00,
2014-04-01 21:27:00,45.1,37.4,29.91,WSW,240,22.0,30.0,74,0.00,,,0.00,meteohub,2014-04-02 01:27:00,
2014-04-01 21:32:00,45.0,37.2,29.91,WSW,241,20.0,32.0,74,0.00,,,0.00,meteohub,2014-04-02 01:32:00,
2014-04-01 21:37:00,45.0,37.2,29.91,WSW,250,21.0,32.0,74,0.00,,,0.00,meteohub,2014-04-02 01:37:00,
2014-04-01 21:42:00,45.3,37.2,29.91,WSW,243,28.0,32.0,73,0.00,,,0.00,meteohub,2014-04-02 01:42:00,
2014-04-01 21:47:00,45.5,37.4,29.91,WSW,245,23.0,32.0,73,0.00,,,0.00,meteohub,2014-04-02 01:47:00,
2014-04-01 21:52:00,45.5,38.3,29.92,WSW,243,23.0,30.0,76,0.00,,,0.00,meteohub,2014-04-02 01:52:00,
2014-04-01 21:57:00,45.5,37.4,29.92,WSW,248,27.0,30.0,73,0.00,,,0.00,meteohub,2014-04-02 01:57:00,
2014-04-01 22:02:00,45.7,37.6,29.92,SW,233,23.0,31.0,73,0.00,,,0.00,meteohub,2014-04-02 02:02:00,
2014-04-01 22:07:00,45.5,37.4,29.92,WSW,246,20.0,31.0,73,0.00,,,0.00,meteohub,2014-04-02 02:07:00,
2014-04-01 22:12:00,45.3,37.2,29.92,WSW,246,21.0,31.0,73,0.00,,,0.00,meteohub,2014-04-02 02:12:00,
2014-04-01 22:17:00,45.1,37.4,29.92,WSW,246,26.0,31.0,74,0.00,,,0.00,meteohub,2014-04-02 02:17:00,
2014-04-01 22:22:00,45.1,37.4,29.92,WSW,237,20.0,29.0,74,0.00,,,0.00,meteohub,2014-04-02 02:22:00,
2014-04-01 22:27:00,45.0,37.6,29.92,WSW,246,25.0,30.0,75,0.00,,,0.00,meteohub,2014-04-02 02:27:00,
2014-04-01 22:32:00,45.0,37.2,29.93,WSW,253,18.0,31.0,74,0.00,,,0.00,meteohub,2014-04-02 02:32:00,
2014-04-01 22:37:00,45.1,37.4,29.92,West,269,20.0,31.0,74,0.00,,,0.00,meteohub,2014-04-02 02:37:00,
2014-04-01 22:42:00,45.1,37.4,29.93,WSW,248,15.0,31.0,74,0.00,,,0.00,meteohub,2014-04-02 02:42:00,
2014-04-01 22:47:00,45.1,37.4,29.93,WSW,252,19.0,27.0,74,0.00,,,0.00,meteohub,2014-04-02 02:47:00,
2014-04-01 22:53:00,45.1,37.4,29.93,WSW,257,17.0,26.0,74,0.00,,,0.00,meteohub,2014-04-02 02:53:00,
2014-04-01 22:58:00,45.0,37.2,29.93,WSW,254,21.0,24.0,74,0.00,,,0.00,meteohub,2014-04-02 02:58:00,
2014-04-01 23:04:00,45.0,37.2,29.93,WSW,247,22.0,24.0,74,0.00,,,0.00,meteohub,2014-04-02 03:04:00,
2014-04-01 23:09:00,44.6,37.2,29.93,West,267,20.0,24.0,75,0.00,,,0.00,meteohub,2014-04-02 03:09:00,
2014-04-01 23:14:00,44.6,37.2,29.93,WSW,252,17.0,24.0,75,0.00,,,0.00,meteohub,2014-04-02 03:14:00,
2014-04-01 23:20:00,44.8,37.4,29.93,WSW,247,18.0,25.0,75,0.00,,,0.00,meteohub,2014-04-02 03:20:00,
2014-04-01 23:25:00,44.8,37.4,29.93,WSW,250,21.0,25.0,75,0.00,,,0.00,meteohub,2014-04-02 03:25:00,
2014-04-01 23:31:00,44.8,37.4,29.93,WSW,252,16.0,25.0,75,0.00,,,0.00,meteohub,2014-04-02 03:31:00,
2014-04-01 23:36:00,45.0,37.6,29.93,West,260,21.0,25.0,75,0.00,,,0.00,meteohub,2014-04-02 03:36:00,
2014-04-01 23:42:00,45.0,37.6,29.94,WSW,244,18.0,22.0,75,0.00,,,0.00,meteohub,2014-04-02 03:42:00,
2014-04-01 23:47:00,45.0,37.2,29.94,WSW,252,18.0,24.0,74,0.00,,,0.00,meteohub,2014-04-02 03:47:00,
2014-04-01 23:52:00,44.2,36.9,29.94,WSW,256,18.0,24.0,75,0.00,,,0.00,meteohub,2014-04-02 03:52:00,
2014-04-01 23:57:00,43.5,36.5,29.95,West,259,16.0,24.0,76,0.00,,,0.00,meteohub,2014-04-02 03:57:00,